Shinshomaru — JJ4005 — position and weather

sailwx.info

Track history (hours):
 
Tides and Currents Weather Stations Pressure Air Temp Water Temp Dewpoint Dewpoint Depression Visibility Wind Speed Wind Dir Waves Ship Positions

Shinshomaru

Last reported at 2017-Sep-21 18:47 UTC. Time now 2017-Sep-22 09:48 UTC.
Position N 34°04' E 134°55'.

Length 111 m; draft 4.5 m.

Type: Cargo ship. MMSI: 431300873.

Date/timePositionNaut miles runAvg speedWind from/ knotsBaromVisibWave heightAir tempDewpointWater temp
2017-Sep-21 18:47N 34°04' E 134°55'414.4
2017-Sep-21 18:30N 34°08' E 134°56'815.4
2017-Sep-21 18:00N 34°16' E 134°58'715.0
2017-Sep-21 17:30N 34°23' E 134°60'714.6
2017-Sep-21 17:00N 34°30' E 135°02'713.9
2017-Sep-21 16:30N 34°37' E 135°01'814.9
2017-Sep-21 15:57N 34°38' E 134°51'3 0.2
2017-Sep-21 00:03N 34°41' E 134°50'1 8.1
2017-Sep-20 23:58N 34°41' E 134°49'3 0.4
2017-Sep-20 16:50N 34°40' E 134°45'  
2017-Sep-18 09:58N 34°40' E 134°47'2 0.2
2017-Sep-17 23:20N 34°41' E 134°49'  
2017-Sep-15 11:55N 34°40' E 134°46'3 0.2
2017-Sep-14 21:46N 34°41' E 134°49'  
2017-Sep-11 20:36N 34°40' E 134°47'111.7
2017-Sep-11 20:29N 34°41' E 134°48'  
Track history (hours):
 
Tides and Currents Weather Stations Pressure Air Temp Water Temp Dewpoint Dewpoint Depression Visibility Wind Speed Wind Dir Waves Ship Positions

Shinshomaru

Last reported at 2017-Sep-21 18:47 UTC. Time now 2017-Sep-22 09:48 UTC.
Position N 34°04' E 134°55'.

Length 111 m; draft 4.5 m.

Type: Cargo ship. MMSI: 431300873.

Date/timePositionNaut miles runAvg speedWind from/ knotsBaromVisibWave heightAir tempDewpointWater temp
2017-Sep-21 18:47N 34°04' E 134°55'414.4
2017-Sep-21 18:30N 34°08' E 134°56'815.4
2017-Sep-21 18:00N 34°16' E 134°58'715.0
2017-Sep-21 17:30N 34°23' E 134°60'714.6
2017-Sep-21 17:00N 34°30' E 135°02'713.9
2017-Sep-21 16:30N 34°37' E 135°01'814.9
2017-Sep-21 15:57N 34°38' E 134°51'3 0.2
2017-Sep-21 00:03N 34°41' E 134°50'1 8.1
2017-Sep-20 23:58N 34°41' E 134°49'3 0.4
2017-Sep-20 16:50N 34°40' E 134°45'  
2017-Sep-18 09:58N 34°40' E 134°47'2 0.2
2017-Sep-17 23:20N 34°41' E 134°49'  
2017-Sep-15 11:55N 34°40' E 134°46'3 0.2
2017-Sep-14 21:46N 34°41' E 134°49'  
2017-Sep-11 20:36N 34°40' E 134°47'111.7
2017-Sep-11 20:29N 34°41' E 134°48'  

Dump ship's entire track history